createdAt,value
2019-03-06T00:02:18.127Z,72.65
2019-03-06T00:04:49.103Z,72.47
2019-03-06T00:07:20.038Z,72.43
2019-03-06T00:09:51.897Z,72.49
2019-03-06T00:12:22.767Z,72.06
2019-03-06T00:14:53.646Z,73.14
2019-03-06T00:17:24.439Z,73.83
2019-03-06T00:19:55.310Z,73.67
2019-03-06T00:22:26.046Z,73.76
2019-03-06T00:24:56.721Z,73.90
2019-03-06T00:27:27.514Z,73.85
2019-03-06T00:29:58.287Z,73.92
2019-03-06T00:32:29.189Z,73.35
2019-03-06T00:35:04.319Z,73.42
2019-03-06T00:37:35.154Z,74.03
2019-03-06T00:40:17.045Z,73.97
2019-03-06T00:42:49.453Z,73.64
2019-03-06T00:45:20.261Z,73.64
2019-03-06T00:47:51.062Z,73.63
2019-03-06T00:50:21.833Z,73.90
2019-03-06T00:52:52.432Z,73.83
2019-03-06T00:55:23.383Z,74.01
2019-03-06T00:57:54.036Z,73.93
2019-03-06T01:00:25.890Z,74.33
2019-03-06T01:02:56.689Z,74.27
2019-03-06T01:05:27.854Z,74.38
2019-03-06T01:07:58.617Z,74.38
2019-03-06T01:10:29.637Z,74.59
2019-03-06T01:13:00.334Z,74.37
2019-03-06T01:15:31.459Z,74.62
2019-03-06T01:18:02.219Z,74.63
2019-03-06T01:20:33.005Z,75.20
2019-03-06T01:23:03.930Z,75.18
2019-03-06T01:25:34.725Z,74.95
2019-03-06T01:28:05.602Z,75.06
2019-03-06T01:30:36.552Z,75.57
2019-03-06T01:33:13.804Z,75.63
2019-03-06T01:35:56.966Z,75.76
2019-03-06T01:38:47.277Z,75.64
2019-03-06T01:41:40.312Z,75.06
2019-03-06T01:44:24.351Z,75.13
2019-03-06T01:46:55.501Z,74.68
2019-03-06T01:49:26.192Z,74.76
2019-03-06T01:51:57.086Z,75.19
2019-03-06T01:54:27.872Z,75.74
2019-03-06T01:56:58.755Z,75.64
2019-03-06T01:59:29.432Z,75.40
2019-03-06T02:02:00.500Z,75.32
2019-03-06T02:04:31.344Z,75.19
2019-03-06T02:07:02.027Z,75.34
2019-03-06T02:09:32.817Z,74.72
2019-03-06T02:12:03.829Z,75.42
2019-03-06T02:14:34.454Z,75.32
2019-03-06T02:17:05.425Z,75.30
2019-03-06T02:19:36.127Z,75.68
2019-03-06T02:22:07.164Z,76.42
2019-03-06T02:24:37.941Z,76.66
2019-03-06T02:27:08.833Z,76.40
2019-03-06T02:29:39.674Z,76.39
2019-03-06T02:32:10.452Z,76.62
2019-03-06T02:34:41.343Z,76.64
2019-03-06T02:37:12.364Z,76.33
2019-03-06T02:39:43.064Z,77.24
2019-03-06T02:42:13.846Z,77.39
2019-03-06T02:44:44.826Z,77.52
2019-03-06T02:47:15.629Z,78.14
2019-03-06T02:49:46.506Z,77.81
2019-03-06T02:52:17.358Z,78.36
2019-03-06T02:54:48.040Z,77.69
2019-03-06T02:57:18.920Z,77.99
2019-03-06T03:00:17.724Z,77.60
2019-03-06T03:03:04.310Z,77.21
2019-03-06T03:05:53.902Z,77.55
2019-03-06T03:08:25.435Z,77.55
2019-03-06T03:10:56.283Z,77.15
2019-03-06T03:13:27.052Z,76.83
2019-03-06T03:15:57.942Z,76.10
2019-03-06T03:18:28.834Z,76.01
2019-03-06T03:20:59.885Z,76.25
2019-03-06T03:23:30.669Z,76.74
2019-03-06T03:26:01.467Z,77.05
2019-03-06T03:28:32.386Z,77.46
2019-03-06T03:31:03.285Z,77.20
2019-03-06T03:33:34.061Z,77.44
2019-03-06T03:36:04.801Z,77.25
2019-03-06T03:38:35.693Z,77.45
2019-03-06T03:41:06.783Z,77.79
2019-03-06T03:43:38.010Z,77.57
2019-03-06T03:46:08.800Z,77.67
2019-03-06T03:48:40.861Z,77.43
2019-03-06T03:51:11.803Z,77.94
2019-03-06T03:53:42.563Z,77.73
2019-03-06T03:56:13.238Z,77.66
2019-03-06T03:58:44.128Z,78.15
2019-03-06T04:01:14.947Z,78.28
2019-03-06T04:03:46.054Z,78.13
2019-03-06T04:06:17.094Z,77.88
2019-03-06T04:08:47.889Z,77.58
2019-03-06T04:11:18.651Z,77.71
2019-03-06T04:13:49.539Z,77.46
2019-03-06T04:16:20.165Z,77.50
2019-03-06T04:18:51.039Z,77.55
2019-03-06T04:21:22.092Z,77.82
2019-03-06T04:23:52.787Z,77.97
2019-03-06T04:26:23.640Z,78.25
2019-03-06T04:28:54.523Z,78.36
2019-03-06T04:31:25.362Z,78.35
2019-03-06T04:33:56.030Z,78.73
2019-03-06T04:36:26.750Z,78.36
2019-03-06T04:38:58.417Z,78.55
2019-03-06T04:41:29.246Z,78.29
2019-03-06T04:44:00.037Z,78.33
2019-03-06T04:46:31.703Z,78.85
2019-03-06T04:49:02.474Z,78.65
2019-03-06T04:51:33.214Z,78.52
2019-03-06T04:54:04.100Z,78.33
2019-03-06T04:56:34.877Z,78.10
2019-03-06T04:59:05.859Z,78.64
2019-03-06T05:01:36.619Z,78.83
2019-03-06T05:04:07.548Z,78.73
2019-03-06T05:06:38.189Z,78.80
2019-03-06T05:09:09.381Z,79.17
2019-03-06T05:11:40.201Z,78.92
2019-03-06T05:14:11.281Z,78.36
2019-03-06T05:17:01.046Z,78.63
2019-03-06T05:19:31.879Z,78.34
2019-03-06T05:22:02.594Z,78.45
2019-03-06T05:24:33.670Z,78.46
2019-03-06T05:27:04.469Z,78.27
2019-03-06T05:29:35.341Z,78.39
2019-03-06T05:32:34.113Z,78.25
2019-03-06T05:35:40.520Z,78.43
2019-03-06T05:38:30.963Z,78.88
2019-03-06T05:41:01.828Z,78.84
2019-03-06T05:43:32.632Z,78.72
2019-03-06T05:46:03.396Z,79.02
2019-03-06T05:48:34.206Z,78.84
2019-03-06T05:51:05.107Z,78.59
2019-03-06T05:53:35.852Z,78.46
2019-03-06T05:56:06.799Z,78.88
2019-03-06T05:58:37.625Z,79.09
2019-03-06T06:01:08.533Z,79.02
2019-03-06T06:03:39.330Z,78.90
2019-03-06T06:06:10.218Z,79.58
2019-03-06T06:08:41.111Z,79.96
2019-03-06T06:11:13.072Z,79.81
2019-03-06T06:13:43.882Z,79.10
2019-03-06T06:16:15.159Z,78.90
2019-03-06T06:18:46.086Z,78.53
2019-03-06T06:21:35.465Z,78.66
2019-03-06T06:24:12.955Z,78.74
2019-03-06T06:26:43.798Z,78.58
2019-03-06T06:29:14.533Z,79.44
2019-03-06T06:31:45.205Z,78.94
2019-03-06T06:34:16.361Z,79.17
2019-03-06T06:36:47.049Z,78.65
2019-03-06T06:39:17.935Z,78.95
2019-03-06T06:41:49.669Z,79.23
2019-03-06T06:44:20.416Z,78.95
2019-03-06T06:46:51.209Z,78.94
2019-03-06T06:49:21.894Z,79.00
2019-03-06T06:52:26.995Z,78.68
2019-03-06T06:55:47.464Z,78.99
2019-03-06T06:58:46.111Z,79.35
2019-03-06T07:02:18.141Z,79.60
2019-03-06T07:05:48.462Z,79.20
2019-03-06T07:08:50.050Z,79.35
2019-03-06T07:11:36.304Z,79.28
2019-03-06T07:14:19.028Z,79.07
2019-03-06T07:17:15.024Z,79.09
2019-03-06T07:20:03.515Z,79.08
2019-03-06T07:22:45.878Z,79.31
2019-03-06T07:25:32.315Z,79.73
2019-03-06T07:28:26.910Z,79.37
2019-03-06T07:31:15.411Z,78.63
2019-03-06T07:33:58.485Z,78.07
2019-03-06T07:36:46.693Z,77.95
2019-03-06T07:39:36.604Z,76.88
2019-03-06T07:42:29.654Z,77.18
2019-03-06T07:45:44.370Z,76.85
2019-03-06T07:48:29.623Z,76.90
2019-03-06T07:51:18.892Z,76.67
2019-03-06T07:54:15.353Z,76.42
2019-03-06T07:56:56.531Z,76.72
2019-03-06T07:59:27.215Z,76.27
2019-03-06T08:02:01.137Z,76.13
2019-03-06T08:04:31.961Z,75.70
2019-03-06T08:07:13.785Z,75.14
2019-03-06T08:09:44.858Z,74.78
2019-03-06T08:12:35.572Z,74.50
2019-03-06T08:15:26.161Z,74.69
2019-03-06T08:18:15.956Z,73.97
2019-03-06T08:21:20.929Z,72.98
2019-03-06T08:24:06.564Z,72.19
2019-03-06T08:26:37.433Z,71.48
2019-03-06T08:29:08.263Z,72.26
2019-03-06T08:31:51.350Z,71.50
2019-03-06T08:34:22.246Z,71.15
2019-03-06T08:36:53.151Z,71.05
2019-03-06T08:39:24.633Z,71.22
2019-03-06T08:41:55.524Z,71.87
2019-03-06T08:44:26.570Z,72.28
2019-03-06T08:47:22.535Z,71.59
2019-03-06T08:50:15.388Z,72.09
2019-03-06T08:53:04.086Z,71.02
2019-03-06T08:55:59.830Z,69.37
2019-03-06T08:58:55.426Z,69.19
2019-03-06T09:01:45.547Z,69.78
2019-03-06T09:04:34.237Z,69.52
2019-03-06T09:07:17.578Z,68.05
2019-03-06T09:10:13.449Z,69.55
2019-03-06T09:13:12.270Z,69.77
2019-03-06T09:16:06.553Z,67.56
2019-03-06T09:18:56.542Z,68.90
2019-03-06T09:21:38.231Z,67.20
2019-03-06T09:24:19.104Z,66.20
2019-03-06T09:26:59.783Z,60.47
2019-03-06T09:29:59.900Z,59.99
2019-03-06T09:33:01.489Z,58.70
2019-03-06T09:35:47.391Z,58.07
2019-03-06T09:38:49.103Z,59.54
2019-03-06T09:41:48.300Z,59.77
2019-03-06T09:44:44.210Z,60.15
2019-03-06T09:47:37.486Z,58.71
2019-03-06T09:50:34.871Z,59.67
2019-03-06T09:53:24.923Z,59.83
2019-03-06T09:56:09.902Z,58.47
2019-03-06T09:58:47.641Z,60.05
2019-03-06T10:01:43.866Z,61.17
2019-03-06T10:04:42.468Z,61.23
2019-03-06T10:07:30.506Z,60.20
2019-03-06T10:10:18.902Z,58.09
2019-03-06T10:13:07.532Z,58.83
2019-03-06T10:15:46.635Z,58.17
2019-03-06T10:18:31.348Z,58.65
2019-03-06T10:21:02.131Z,58.54
2019-03-06T10:23:33.013Z,58.14
2019-03-06T10:26:03.802Z,59.19
2019-03-06T10:28:36.592Z,58.20
2019-03-06T10:31:07.374Z,58.43
2019-03-06T10:33:38.267Z,55.68
2019-03-06T10:36:09.505Z,58.00
2019-03-06T10:38:40.452Z,54.72
2019-03-06T10:41:11.270Z,54.82
2019-03-06T10:43:48.885Z,54.85
2019-03-06T10:46:14.545Z,56.99
2019-03-06T10:48:45.716Z,54.32
2019-03-06T10:51:16.619Z,54.13
2019-03-06T10:53:47.755Z,53.64
2019-03-06T10:56:18.670Z,53.85
2019-03-06T10:58:49.507Z,55.62
2019-03-06T11:01:20.439Z,53.23
2019-03-06T11:04:07.219Z,52.04
2019-03-06T11:06:38.018Z,52.36
2019-03-06T11:09:10.922Z,51.53
2019-03-06T11:11:42.114Z,51.33
2019-03-06T11:14:13.406Z,51.71
2019-03-06T11:16:44.399Z,51.66
2019-03-06T11:19:15.794Z,50.78
2019-03-06T11:21:46.697Z,50.76
2019-03-06T11:24:17.388Z,52.47
2019-03-06T11:26:48.259Z,49.67
2019-03-06T11:29:19.505Z,50.97
2019-03-06T11:31:50.379Z,49.46
2019-03-06T11:34:21.367Z,48.40
2019-03-06T11:36:53.791Z,48.97
2019-03-06T11:39:25.154Z,48.95
2019-03-06T11:41:55.966Z,48.25
2019-03-06T11:44:26.805Z,47.88
2019-03-06T11:46:57.835Z,47.06
2019-03-06T11:49:28.651Z,45.90
2019-03-06T11:51:59.722Z,46.84
2019-03-06T11:54:30.775Z,47.35
2019-03-06T11:57:01.643Z,48.24
2019-03-06T11:59:32.401Z,49.38
2019-03-06T12:02:04.598Z,47.44
2019-03-06T12:04:36.555Z,45.90
2019-03-06T12:07:08.530Z,46.79
2019-03-06T12:09:39.334Z,48.83
2019-03-06T12:12:10.303Z,46.14
2019-03-06T12:14:41.667Z,44.88
2019-03-06T12:17:14.160Z,47.03
2019-03-06T12:19:44.963Z,47.46
2019-03-06T12:22:16.082Z,47.08
2019-03-06T12:24:46.712Z,45.17
2019-03-06T12:27:17.594Z,46.01
2019-03-06T12:29:48.516Z,44.14
2019-03-06T12:32:19.309Z,43.41
2019-03-06T12:34:50.082Z,45.23
2019-03-06T12:37:20.930Z,44.11
2019-03-06T12:39:51.556Z,45.01
2019-03-06T12:42:22.402Z,42.68
2019-03-06T12:44:53.414Z,42.24
2019-03-06T12:47:24.564Z,42.98
2019-03-06T12:49:55.273Z,41.61
2019-03-06T12:52:26.138Z,43.17
2019-03-06T12:54:57.187Z,44.43
2019-03-06T12:57:27.984Z,40.35
2019-03-06T12:59:58.768Z,39.98
2019-03-06T13:02:30.729Z,42.13
2019-03-06T13:05:01.452Z,42.71
2019-03-06T13:07:32.835Z,42.31
2019-03-06T13:10:03.695Z,39.47
2019-03-06T13:12:34.292Z,41.80
2019-03-06T13:15:05.998Z,40.52
2019-03-06T13:17:37.733Z,39.34
2019-03-06T13:20:09.518Z,39.26
2019-03-06T13:22:40.495Z,38.47
2019-03-06T13:25:12.298Z,37.55
2019-03-06T13:27:43.284Z,37.17
2019-03-06T13:30:15.840Z,36.66
2019-03-06T13:33:08.724Z,37.53
2019-03-06T13:35:39.826Z,35.38
2019-03-06T13:38:11.725Z,35.48
2019-03-06T13:40:43.669Z,36.86
2019-03-06T13:43:14.313Z,35.41
2019-03-06T13:45:45.302Z,38.11
2019-03-06T13:48:17.178Z,38.77
2019-03-06T13:50:48.281Z,38.81
2019-03-06T13:53:20.586Z,39.49
2019-03-06T13:55:51.660Z,39.85
2019-03-06T13:58:22.602Z,38.06
2019-03-06T14:00:53.580Z,40.71
2019-03-06T14:03:25.086Z,43.12
2019-03-06T14:05:57.278Z,40.16
2019-03-06T14:08:28.116Z,39.25
2019-03-06T14:10:58.904Z,41.07
2019-03-06T14:13:29.679Z,38.48
2019-03-06T14:16:00.947Z,37.36
2019-03-06T14:18:31.750Z,41.76
2019-03-06T14:21:02.415Z,41.23
2019-03-06T14:23:35.319Z,42.41
2019-03-06T14:26:07.289Z,43.24
2019-03-06T14:28:38.034Z,38.55
2019-03-06T14:31:10.687Z,29.81
2019-03-06T14:33:41.587Z,31.08
2019-03-06T14:36:12.352Z,29.81
2019-03-06T14:38:43.428Z,31.25
2019-03-06T14:41:14.105Z,32.07
2019-03-06T14:43:44.999Z,33.30
2019-03-06T14:46:16.735Z,29.98
2019-03-06T14:48:47.675Z,29.13
2019-03-06T14:51:18.323Z,29.85
2019-03-06T14:53:49.205Z,29.60
2019-03-06T14:56:20.029Z,29.19
2019-03-06T14:58:50.769Z,31.67
2019-03-06T15:01:21.465Z,34.26
2019-03-06T15:03:52.336Z,33.20
2019-03-06T15:06:23.343Z,40.85
2019-03-06T15:08:54.159Z,43.93
2019-03-06T15:11:32.952Z,43.65
2019-03-06T15:13:57.559Z,44.57
2019-03-06T15:16:28.423Z,46.81
2019-03-06T15:18:59.219Z,47.16
2019-03-06T15:21:30.104Z,45.31
2019-03-06T15:24:00.873Z,48.06
2019-03-06T15:26:31.687Z,46.01
2019-03-06T15:29:02.556Z,48.98
2019-03-06T15:31:33.626Z,46.13
2019-03-06T15:34:04.663Z,47.61
2019-03-06T15:36:35.632Z,49.68
2019-03-06T15:39:19.739Z,50.42
2019-03-06T15:41:59.905Z,51.07
2019-03-06T15:44:23.223Z,50.86
2019-03-06T15:46:54.162Z,50.73
2019-03-06T15:49:25.155Z,52.00
2019-03-06T15:51:55.917Z,52.44
2019-03-06T15:54:26.785Z,52.35
2019-03-06T15:56:57.574Z,53.09
2019-03-06T15:59:28.352Z,53.53
2019-03-06T16:01:59.363Z,53.66
2019-03-06T16:04:30.256Z,52.49
2019-03-06T16:07:01.058Z,53.59
2019-03-06T16:09:31.944Z,53.78
2019-03-06T16:12:02.730Z,53.77
2019-03-06T16:14:33.502Z,53.34
2019-03-06T16:17:04.579Z,53.68
2019-03-06T16:19:35.734Z,53.82
2019-03-06T16:22:06.960Z,55.23
2019-03-06T16:24:37.963Z,54.85
2019-03-06T16:27:08.734Z,54.71
2019-03-06T16:29:39.623Z,54.49
2019-03-06T16:32:10.407Z,53.78
2019-03-06T16:34:41.606Z,55.23
2019-03-06T16:37:13.349Z,53.45
2019-03-06T16:39:44.271Z,54.73
2019-03-06T16:42:15.089Z,55.14
2019-03-06T16:44:45.925Z,54.76
2019-03-06T16:47:16.559Z,53.53
2019-03-06T16:49:47.868Z,54.95
2019-03-06T16:52:18.771Z,52.65
2019-03-06T16:54:49.558Z,50.50
2019-03-06T16:57:20.522Z,52.91
2019-03-06T16:59:51.423Z,52.52
2019-03-06T17:02:22.191Z,53.22
2019-03-06T17:04:54.111Z,54.55
2019-03-06T17:07:25.119Z,54.75
2019-03-06T17:09:56.071Z,55.34
2019-03-06T17:12:26.996Z,54.58
2019-03-06T17:14:57.887Z,54.28
2019-03-06T17:17:28.839Z,53.73
2019-03-06T17:19:59.706Z,53.66
2019-03-06T17:22:30.727Z,53.40
2019-03-06T17:25:03.896Z,52.84
2019-03-06T17:27:35.594Z,52.40
2019-03-06T17:30:09.937Z,53.13
2019-03-06T17:33:09.020Z,53.34
2019-03-06T17:35:40.379Z,52.56
2019-03-06T17:38:12.111Z,52.95
2019-03-06T17:40:43.992Z,53.28
2019-03-06T17:43:15.407Z,52.44
2019-03-06T17:45:46.538Z,53.14
2019-03-06T17:48:17.532Z,52.63
2019-03-06T17:50:48.493Z,51.02
2019-03-06T17:53:19.495Z,52.21
2019-03-06T17:55:50.431Z,48.79
2019-03-06T17:58:21.546Z,48.67
2019-03-06T18:00:55.366Z,49.73
2019-03-06T18:03:35.248Z,45.25
2019-03-06T18:06:06.063Z,46.15
2019-03-06T18:08:37.212Z,46.40
2019-03-06T18:11:08.042Z,47.20
2019-03-06T18:13:38.779Z,48.99
2019-03-06T18:16:09.533Z,47.19
2019-03-06T18:18:40.127Z,46.20
2019-03-06T18:21:10.887Z,48.77
2019-03-06T18:23:41.589Z,47.50
2019-03-06T18:26:12.487Z,48.09
2019-03-06T18:28:43.256Z,47.61
2019-03-06T18:31:14.229Z,47.66
2019-03-06T18:33:45.178Z,46.76
2019-03-06T18:36:16.039Z,48.75
2019-03-06T18:38:46.911Z,49.29
2019-03-06T18:41:19.130Z,48.73
2019-03-06T18:43:49.811Z,45.18
2019-03-06T18:46:20.686Z,43.28
2019-03-06T18:48:51.831Z,45.87
2019-03-06T18:51:23.795Z,44.47
2019-03-06T18:53:54.719Z,46.42
2019-03-06T18:56:26.487Z,47.86
2019-03-06T18:58:58.943Z,47.10
2019-03-06T19:01:30.238Z,48.97
2019-03-06T19:04:01.015Z,49.83
2019-03-06T19:06:31.791Z,48.00
2019-03-06T19:09:02.673Z,49.84
2019-03-06T19:11:35.383Z,50.56
2019-03-06T19:14:06.735Z,51.34
2019-03-06T19:16:37.511Z,51.38
2019-03-06T19:19:08.280Z,48.78
2019-03-06T19:21:38.979Z,50.96
2019-03-06T19:24:09.943Z,48.56
2019-03-06T19:26:41.310Z,50.21
2019-03-06T19:29:12.106Z,50.10
2019-03-06T19:31:44.034Z,50.35
2019-03-06T19:34:14.958Z,50.54
2019-03-06T19:36:45.850Z,50.78
2019-03-06T19:39:16.903Z,50.31
2019-03-06T19:41:47.876Z,48.06
2019-03-06T19:44:19.704Z,51.03
2019-03-06T19:46:50.833Z,48.10
2019-03-06T19:49:21.721Z,49.23
2019-03-06T19:51:52.686Z,42.90
2019-03-06T19:54:23.560Z,45.95
2019-03-06T19:56:55.076Z,48.71
2019-03-06T19:59:25.892Z,47.88
2019-03-06T20:01:56.829Z,48.54
2019-03-06T20:04:27.725Z,49.51
2019-03-06T20:06:58.850Z,47.46
2019-03-06T20:09:30.311Z,45.34
2019-03-06T20:12:01.305Z,45.85
2019-03-06T20:14:32.453Z,49.59
2019-03-06T20:17:03.387Z,46.42
2019-03-06T20:19:34.280Z,45.24
2019-03-06T20:22:05.164Z,44.52
2019-03-06T20:24:36.086Z,45.24
2019-03-06T20:27:07.116Z,46.83
2019-03-06T20:29:37.963Z,50.92
2019-03-06T20:32:08.714Z,53.05
2019-03-06T20:34:39.535Z,53.68
2019-03-06T20:37:10.327Z,53.98
2019-03-06T20:39:41.208Z,55.02
2019-03-06T20:42:12.103Z,55.58
2019-03-06T20:44:42.898Z,55.45
2019-03-06T20:47:14.151Z,56.39
2019-03-06T20:49:44.865Z,54.90
2019-03-06T20:52:15.835Z,56.57
2019-03-06T20:54:46.388Z,56.06
2019-03-06T20:57:16.918Z,55.92
2019-03-06T20:59:47.591Z,55.42
2019-03-06T21:02:18.960Z,54.79
2019-03-06T21:04:49.675Z,54.08
2019-03-06T21:07:20.729Z,54.59
2019-03-06T21:09:51.553Z,53.99
2019-03-06T21:12:22.292Z,53.78
2019-03-06T21:14:53.187Z,53.23
2019-03-06T21:17:24.865Z,52.71
2019-03-06T21:19:55.722Z,53.40
2019-03-06T21:22:26.486Z,53.70
2019-03-06T21:24:57.153Z,53.74
2019-03-06T21:27:27.943Z,54.11
2019-03-06T21:29:58.615Z,53.80
2019-03-06T21:32:29.747Z,54.18
2019-03-06T21:35:00.527Z,53.35
2019-03-06T21:37:31.487Z,53.80
2019-03-06T21:40:02.212Z,53.18
2019-03-06T21:42:33.294Z,54.49
2019-03-06T21:45:04.185Z,53.62
2019-03-06T21:47:34.996Z,54.83
2019-03-06T21:50:08.430Z,55.38
2019-03-06T21:52:39.310Z,55.07
2019-03-06T21:55:21.723Z,54.90
2019-03-06T21:57:54.620Z,54.02
2019-03-06T22:00:25.663Z,53.34
2019-03-06T22:02:56.447Z,53.33
2019-03-06T22:05:27.227Z,55.25
2019-03-06T22:07:57.928Z,55.60
2019-03-06T22:10:28.906Z,55.42
2019-03-06T22:12:59.608Z,55.42
2019-03-06T22:15:30.495Z,57.10
2019-03-06T22:18:01.288Z,56.67
2019-03-06T22:20:32.165Z,55.82
2019-03-06T22:23:03.432Z,53.58
2019-03-06T22:25:34.321Z,54.00
2019-03-06T22:28:05.229Z,54.60
2019-03-06T22:30:36.129Z,53.89
2019-03-06T22:33:06.918Z,51.69
2019-03-06T22:35:37.699Z,51.90
2019-03-06T22:38:08.759Z,52.24
2019-03-06T22:40:39.538Z,53.25
2019-03-06T22:43:11.354Z,50.82
2019-03-06T22:45:42.144Z,49.49
2019-03-06T22:48:13.303Z,49.94
2019-03-06T22:50:44.020Z,50.53
2019-03-06T22:53:15.225Z,51.05
2019-03-06T22:55:45.999Z,50.55
2019-03-06T22:58:16.812Z,50.10
2019-03-06T23:00:54.978Z,50.84
2019-03-06T23:03:26.981Z,50.11
2019-03-06T23:05:57.871Z,49.65
2019-03-06T23:08:28.623Z,49.79
2019-03-06T23:10:59.515Z,52.38
2019-03-06T23:13:31.319Z,53.24
2019-03-06T23:16:02.098Z,54.53
2019-03-06T23:18:33.006Z,55.35
2019-03-06T23:21:03.946Z,56.31
2019-03-06T23:23:35.155Z,56.72
2019-03-06T23:26:06.094Z,58.84
2019-03-06T23:28:36.953Z,59.46
2019-03-06T23:31:07.829Z,59.52
2019-03-06T23:33:38.513Z,58.77
2019-03-06T23:36:09.297Z,58.09
2019-03-06T23:38:40.079Z,59.58
2019-03-06T23:41:10.665Z,59.37
2019-03-06T23:43:41.729Z,60.42
2019-03-06T23:46:13.146Z,60.48
2019-03-06T23:48:43.835Z,60.23
2019-03-06T23:51:25.734Z,57.45
2019-03-06T23:53:56.724Z,57.85
2019-03-06T23:56:27.704Z,58.32
2019-03-06T23:58:58.541Z,57.23
